createdAt,value
2023-01-11T00:04:30.662Z,100592.91
2023-01-11T00:09:34.087Z,100601.81
2023-01-11T00:14:37.200Z,100597.59
2023-01-11T00:19:41.848Z,100596.81
2023-01-11T00:24:44.937Z,100599.66
2023-01-11T00:29:47.944Z,100591.69
2023-01-11T00:34:52.522Z,100591.91
2023-01-11T00:39:58.400Z,100599.91
2023-01-11T00:45:19.071Z,100589.44
2023-01-11T00:50:26.552Z,100584.28
2023-01-11T00:55:29.669Z,100593.25
2023-01-11T01:00:32.678Z,100595.13
2023-01-11T01:05:39.057Z,100578.53
2023-01-11T01:10:42.039Z,100586.50
2023-01-11T01:15:45.266Z,100591.94
2023-01-11T01:20:55.140Z,100579.69
2023-01-11T01:25:58.138Z,100586.78
2023-01-11T01:31:01.498Z,100589.50
2023-01-11T01:36:06.352Z,100580.84
2023-01-11T01:41:09.454Z,100587.94
2023-01-11T01:46:12.807Z,100583.56
2023-01-11T01:51:22.126Z,100596.78
2023-01-11T01:56:29.644Z,100599.50
2023-01-11T02:01:51.141Z,100593.38
2023-01-11T02:07:00.721Z,100606.63
2023-01-11T02:12:04.422Z,100605.72
2023-01-11T02:17:07.440Z,100610.19
2023-01-11T02:22:39.144Z,100612.09
2023-01-11T02:27:57.086Z,100597.13
2023-01-11T02:33:07.767Z,100610.41
2023-01-11T02:38:23.025Z,100599.13
2023-01-11T02:43:49.455Z,100607.16
2023-01-11T02:49:00.807Z,100604.53
2023-01-11T02:54:08.297Z,100611.56
2023-01-11T02:59:17.930Z,100597.69
2023-01-11T03:04:26.085Z,100624.06
2023-01-11T03:09:38.560Z,100618.81
2023-01-11T03:14:52.182Z,100624.09
2023-01-11T03:19:58.659Z,100614.59
2023-01-11T03:25:09.302Z,100625.09
2023-01-11T03:30:20.876Z,100613.75
2023-01-11T03:35:32.906Z,100614.69
2023-01-11T03:40:41.120Z,100616.47
2023-01-11T03:45:50.979Z,100634.06
2023-01-11T03:50:59.088Z,100636.72
2023-01-11T03:56:04.193Z,100649.94
2023-01-11T04:01:09.093Z,100643.81
2023-01-11T04:06:12.789Z,100658.75
2023-01-11T04:11:15.830Z,100656.94
2023-01-11T04:16:20.288Z,100683.22
2023-01-11T04:21:23.506Z,100682.31
2023-01-11T04:26:26.708Z,100667.28
2023-01-11T04:31:31.198Z,100688.38
2023-01-11T04:36:34.414Z,100677.78
2023-01-11T04:41:57.525Z,100681.22
2023-01-11T04:47:01.938Z,100697.88
2023-01-11T04:52:05.535Z,100695.09
2023-01-11T04:57:11.955Z,100689.09
2023-01-11T05:02:16.930Z,100707.38
2023-01-11T05:07:20.021Z,100717.84
2023-01-11T05:12:24.443Z,100715.03
2023-01-11T05:17:28.848Z,100727.84
2023-01-11T05:22:32.027Z,100741.50
2023-01-11T05:27:34.944Z,100734.16
2023-01-11T05:32:42.100Z,100746.81
2023-01-11T05:37:45.009Z,100762.34
2023-01-11T05:42:48.152Z,100754.97
2023-01-11T05:47:55.171Z,100770.50
2023-01-11T05:52:58.563Z,100747.41
2023-01-11T05:58:01.961Z,100774.31
2023-01-11T06:03:06.476Z,100771.69
2023-01-11T06:08:09.875Z,100777.63
2023-01-11T06:13:28.119Z,100794.97
2023-01-11T06:18:34.391Z,100798.34
2023-01-11T06:23:39.649Z,100793.00
2023-01-11T06:28:42.837Z,100791.09
2023-01-11T06:33:47.912Z,100802.25
2023-01-11T06:38:51.150Z,100819.41
2023-01-11T06:43:56.845Z,100828.88
2023-01-11T06:49:03.323Z,100828.50
2023-01-11T06:54:06.400Z,100822.25
2023-01-11T06:59:11.537Z,100827.13
2023-01-11T07:04:17.150Z,100839.66
2023-01-11T07:09:20.270Z,100861.31
2023-01-11T07:14:25.191Z,100863.47
2023-01-11T07:19:29.596Z,100876.13
2023-01-11T07:24:32.613Z,100870.66
2023-01-11T07:29:38.263Z,100886.75
2023-01-11T07:34:42.689Z,100883.69
2023-01-11T07:39:46.656Z,100882.59
2023-01-11T07:44:49.698Z,100900.63
2023-01-11T07:49:59.361Z,100922.13
2023-01-11T07:55:03.311Z,100933.13
2023-01-11T08:00:07.286Z,100933.81
2023-01-11T08:05:15.858Z,100944.16
2023-01-11T08:10:19.176Z,100959.88
2023-01-11T08:15:23.642Z,100977.19
2023-01-11T08:20:28.978Z,100989.16
2023-01-11T08:25:32.232Z,101001.28
2023-01-11T08:30:35.857Z,101013.25
2023-01-11T08:35:40.783Z,101019.97
2023-01-11T08:40:43.797Z,101042.56
2023-01-11T08:45:46.835Z,101034.53
2023-01-11T08:50:51.241Z,101036.03
2023-01-11T08:55:55.272Z,101029.84
2023-01-11T09:00:59.209Z,101034.03
2023-01-11T09:06:03.641Z,101037.59
2023-01-11T09:11:26.970Z,101035.00
2023-01-11T09:16:30.165Z,101042.50
2023-01-11T09:21:34.973Z,101043.66
2023-01-11T09:26:38.715Z,101054.00
2023-01-11T09:31:42.339Z,101058.13
2023-01-11T09:36:48.781Z,101062.03
2023-01-11T09:42:22.413Z,101047.63
2023-01-11T09:47:33.843Z,101065.84
2023-01-11T09:52:42.202Z,101073.28
2023-01-11T09:57:58.391Z,101088.69
2023-01-11T10:03:35.562Z,101093.59
2023-01-11T10:18:29.668Z,101082.22
2023-01-11T10:20:01.359Z,101082.47
2023-01-11T10:25:18.865Z,101097.34
2023-01-11T10:30:44.228Z,101099.47
2023-01-11T10:36:10.609Z,101108.94
2023-01-11T10:41:26.129Z,101127.66
2023-01-11T10:46:33.174Z,101118.41
2023-01-11T10:51:40.429Z,101121.09
2023-01-11T10:57:04.730Z,101119.63
2023-01-11T11:02:22.395Z,101124.69
2023-01-11T11:07:34.542Z,101106.41
2023-01-11T11:12:42.966Z,101115.13
2023-01-11T11:17:50.444Z,101102.78
2023-01-11T11:22:58.349Z,101122.72
2023-01-11T11:28:06.776Z,101108.69
2023-01-11T11:33:18.593Z,101122.16
2023-01-11T11:38:24.673Z,101120.59
2023-01-11T11:43:29.434Z,101126.41
2023-01-11T11:48:34.436Z,101112.84
2023-01-11T11:53:43.661Z,101122.59
2023-01-11T11:58:48.725Z,101123.47
2023-01-11T12:03:53.399Z,101133.47
2023-01-11T12:08:57.865Z,101111.84
2023-01-11T12:14:16.682Z,101116.72
2023-01-11T12:19:30.674Z,101121.03
2023-01-11T12:24:33.918Z,101123.91
2023-01-11T12:30:05.163Z,101138.81
2023-01-11T12:35:34.931Z,101123.16
2023-01-11T12:40:47.340Z,101135.72
2023-01-11T12:46:03.242Z,101144.50
2023-01-11T12:51:24.200Z,101149.22
2023-01-11T12:56:49.935Z,101140.22
2023-01-11T13:02:14.616Z,101151.81
2023-01-11T13:07:32.211Z,101161.22
2023-01-11T13:12:42.576Z,101147.00
2023-01-11T13:17:54.289Z,101157.69
2023-01-11T13:23:04.427Z,101160.25
2023-01-11T13:28:23.918Z,101154.41
2023-01-11T13:33:31.975Z,101142.03
2023-01-11T13:38:40.327Z,101136.38
2023-01-11T13:43:48.026Z,101150.66
2023-01-11T13:48:57.354Z,101126.69
2023-01-11T13:54:05.528Z,101137.81
2023-01-11T13:59:14.048Z,101117.31
2023-01-11T14:04:22.887Z,101116.72
2023-01-11T14:09:44.877Z,101103.56
2023-01-11T14:15:31.546Z,101109.19
2023-01-11T14:20:45.507Z,101121.16
2023-01-11T14:26:31.343Z,101112.94
2023-01-11T14:31:56.550Z,101114.66
2023-01-11T14:37:33.990Z,101102.16
2023-01-11T14:43:12.946Z,101106.56
2023-01-11T14:48:25.258Z,101110.81
2023-01-11T14:53:37.442Z,101115.16
2023-01-11T14:59:01.089Z,101107.09
2023-01-11T15:04:04.284Z,101100.50
2023-01-11T15:09:44.357Z,101104.50
2023-01-11T15:14:49.314Z,101113.66
2023-01-11T15:19:56.490Z,101100.66
2023-01-11T15:25:05.160Z,101105.19
2023-01-11T15:30:29.818Z,101110.59
2023-01-11T15:35:34.771Z,101118.25
2023-01-11T15:40:41.754Z,101125.66
2023-01-11T15:46:24.429Z,101125.66
2023-01-11T15:51:49.650Z,101129.75
2023-01-11T15:57:28.683Z,101139.63
2023-01-11T16:03:01.105Z,101143.91
2023-01-11T16:08:18.031Z,101150.47
2023-01-11T16:13:35.717Z,101158.94
2023-01-11T16:18:44.364Z,101151.44
2023-01-11T16:23:47.713Z,101148.44
2023-01-11T16:28:55.599Z,101155.03
2023-01-11T16:34:07.556Z,101137.22
2023-01-11T16:39:15.004Z,101142.00
2023-01-11T16:44:29.128Z,101137.75
2023-01-11T16:49:32.355Z,101139.06
2023-01-11T16:54:38.939Z,101151.53
2023-01-11T16:59:43.389Z,101138.94
2023-01-11T17:04:51.711Z,101131.50
2023-01-11T17:10:22.866Z,101142.16
2023-01-11T17:15:32.960Z,101141.25
2023-01-11T17:20:37.473Z,101137.75
2023-01-11T17:25:45.118Z,101124.41
2023-01-11T17:30:51.814Z,101131.31
2023-01-11T17:35:57.611Z,101139.09
2023-01-11T17:41:23.640Z,101120.84
2023-01-11T17:46:27.520Z,101119.78
2023-01-11T17:51:33.240Z,101129.94
2023-01-11T17:56:39.521Z,101108.22
2023-01-11T18:01:47.749Z,101111.75
2023-01-11T18:06:54.075Z,101107.13
2023-01-11T18:12:08.853Z,101087.88
2023-01-11T18:17:31.930Z,101103.66
2023-01-11T18:22:40.470Z,101076.63
2023-01-11T18:27:46.633Z,101076.63
2023-01-11T18:32:52.620Z,101082.03
2023-01-11T18:37:55.822Z,101052.91
2023-01-11T18:43:00.267Z,101076.69
2023-01-11T18:48:03.334Z,101063.59
2023-01-11T18:53:06.504Z,101050.19
2023-01-11T18:58:10.951Z,101027.03
2023-01-11T19:08:18.854Z,101015.66
2023-01-11T19:13:26.683Z,101002.25
2023-01-11T19:18:30.021Z,101011.59
2023-01-11T19:23:34.278Z,101020.69
2023-01-11T19:28:39.392Z,101001.25
2023-01-11T19:33:42.984Z,101017.56
2023-01-11T19:38:45.977Z,101030.16
2023-01-11T19:43:50.358Z,101012.47
2023-01-11T19:48:56.105Z,101027.94
2023-01-11T19:53:59.183Z,101021.53
2023-01-11T19:59:03.931Z,101037.25
2023-01-11T20:04:07.046Z,101028.38
2023-01-11T20:09:14.023Z,101031.75
2023-01-11T20:14:19.105Z,101007.19
2023-01-11T20:19:22.548Z,100995.75
2023-01-11T20:24:30.199Z,100990.47
2023-01-11T20:29:34.785Z,100979.00
2023-01-11T20:34:37.935Z,100990.31
2023-01-11T20:39:40.996Z,100992.84
2023-01-11T20:44:45.751Z,101016.22
2023-01-11T20:49:48.769Z,100991.56
2023-01-11T20:54:51.924Z,100988.94
2023-01-11T20:59:56.370Z,100978.34
2023-01-11T21:04:59.953Z,100974.44
2023-01-11T21:10:02.997Z,100972.88
2023-01-11T21:15:10.922Z,100968.25
2023-01-11T21:20:14.310Z,100967.25
2023-01-11T21:25:17.874Z,100963.78
2023-01-11T21:30:26.235Z,100963.63
2023-01-11T21:35:29.458Z,100972.28
2023-01-11T21:40:34.192Z,100957.47
2023-01-11T21:45:38.549Z,100947.31
2023-01-11T21:50:46.070Z,100928.47
2023-01-11T21:55:49.680Z,100942.53
2023-01-11T22:00:56.888Z,100942.53
2023-01-11T22:06:03.508Z,100940.50
2023-01-11T22:11:07.611Z,100957.47
2023-01-11T22:16:14.590Z,100955.84
2023-01-11T22:21:19.424Z,100961.59
2023-01-11T22:26:22.968Z,100958.22
2023-01-11T22:31:32.025Z,100962.59
2023-01-11T22:36:35.385Z,100958.34
2023-01-11T22:41:40.153Z,100964.50
2023-01-11T22:46:45.320Z,100983.97
2023-01-11T22:51:48.375Z,100998.94
2023-01-11T22:56:51.481Z,100978.84
2023-01-11T23:01:55.924Z,100979.84
2023-01-11T23:06:58.977Z,100973.13
2023-01-11T23:12:19.397Z,100973.00
2023-01-11T23:17:25.707Z,100980.16
2023-01-11T23:22:28.701Z,100969.75
2023-01-11T23:27:31.731Z,100975.00
2023-01-11T23:32:36.200Z,100975.00
2023-01-11T23:37:39.123Z,100978.38
2023-01-11T23:42:42.121Z,100969.63
2023-01-11T23:47:46.502Z,100967.63
2023-01-11T23:52:49.443Z,100969.25
2023-01-11T23:58:06.394Z,100953.41
